Time;durP1;ratioP1;P1;durP2;ratioP2;P2;SDS_P1;SDS_P2;PMS_P1;PMS_P2;Temp;Humidity;BMP_temperature;BMP_pressure;BME280_temperature;BME280_humidity;BME280_pressure;Samples;Min_cycle;Max_cycle;Signal;HPM_P1;HPM_P2
2024/03/20 00:01:10;;;;;;;12.40;10.25;;;;;;;8.18;73.66;98571.94;5041686;28;20029;-75
2024/03/20 00:03:35;;;;;;;12.70;10.43;;;;;;;8.14;73.50;98570.75;5033515;28;20031;-75
2024/03/20 00:06:00;;;;;;;13.00;10.55;;;;;;;8.13;73.18;98573.63;5042912;28;20030;-74
2024/03/20 00:08:26;;;;;;;16.38;10.48;;;;;;;8.00;74.25;98558.50;5051216;28;20028;-75
2024/03/20 00:10:51;;;;;;;13.43;10.02;;;;;;;8.00;74.01;98566.53;5035170;28;20135;-75
2024/03/20 00:13:17;;;;;;;11.02;9.27;;;;;;;8.04;73.62;98575.78;5034036;28;20036;-75
2024/03/20 00:15:43;;;;;;;10.30;9.02;;;;;;;8.01;73.67;98575.38;5049158;28;20095;-75
2024/03/20 00:18:08;;;;;;;11.63;10.48;;;;;;;7.89;73.65;98569.91;5034267;28;20028;-75
2024/03/20 00:20:34;;;;;;;12.05;9.48;;;;;;;7.81;73.80;98564.81;5033520;28;20124;-75
2024/03/20 00:22:59;;;;;;;11.48;9.68;;;;;;;7.87;73.33;98563.09;5050551;28;20455;-75
2024/03/20 00:25:25;;;;;;;13.23;9.20;;;;;;;7.84;73.98;98563.56;5030432;28;20123;-75
2024/03/20 00:27:51;;;;;;;13.20;10.02;;;;;;;7.74;73.16;98553.31;5044253;28;20021;-74
2024/03/20 00:30:16;;;;;;;10.93;9.23;;;;;;;7.69;73.60;98558.50;5034066;28;20040;-75
2024/03/20 00:32:43;;;;;;;13.07;9.73;;;;;;;7.74;73.77;98557.84;5013274;28;20079;-75
2024/03/20 00:35:08;;;;;;;10.98;9.68;;;;;;;7.70;74.01;98553.97;5034775;28;20115;-75
2024/03/20 00:40:00;;;;;;;11.15;9.20;;;;;;;7.62;73.26;98555.88;5009188;28;20048;-74
2024/03/20 00:42:26;;;;;;;11.88;10.68;;;;;;;7.56;73.76;98561.28;5010590;28;20026;-74
2024/03/20 00:44:51;;;;;;;13.88;10.90;;;;;;;7.56;73.76;98553.25;4989956;28;20038;-73
2024/03/20 00:47:18;;;;;;;12.30;10.77;;;;;;;7.58;73.26;98565.38;5016735;28;20459;-75
2024/03/20 00:49:45;;;;;;;11.57;10.45;;;;;;;7.54;73.62;98566.00;5021713;28;20045;-75
2024/03/20 00:52:10;;;;;;;12.82;10.70;;;;;;;7.49;74.60;98565.88;5005315;28;20021;-75
2024/03/20 00:54:38;;;;;;;12.48;10.07;;;;;;;7.38;74.10;98547.78;5001504;28;20519;-74
2024/03/20 00:57:04;;;;;;;10.77;9.65;;;;;;;7.32;74.87;98538.75;5017703;28;20477;-75
2024/03/20 00:59:29;;;;;;;11.68;9.65;;;;;;;7.31;74.51;98536.28;5018603;28;20045;-73
2024/03/20 01:01:54;;;;;;;10.68;9.55;;;;;;;7.32;74.54;98537.94;5017850;28;20029;-74
2024/03/20 01:04:20;;;;;;;13.15;10.23;;;;;;;7.24;75.70;98530.13;5001013;28;20117;-73
2024/03/20 01:06:45;;;;;;;12.02;10.43;;;;;;;7.27;74.81;98535.91;5017558;28;20037;-73
2024/03/20 01:09:10;;;;;;;17.00;11.57;;;;;;;7.33;75.56;98547.59;5037468;28;20121;-73
2024/03/20 01:11:36;;;;;;;16.00;11.40;;;;;;;7.35;76.15;98542.88;5017688;28;20025;-74
2024/03/20 01:14:01;;;;;;;16.75;11.55;;;;;;;7.31;76.08;98525.56;5035156;28;20029;-73
2024/03/20 01:16:28;;;;;;;17.55;12.18;;;;;;;7.43;76.31;98537.25;5000802;28;20511;-73
2024/03/20 01:18:54;;;;;;;16.38;11.85;;;;;;;7.39;77.36;98525.31;5035134;28;20488;-74
2024/03/20 01:21:20;;;;;;;14.27;11.10;;;;;;;7.39;77.49;98520.78;5001093;28;20033;-74
2024/03/20 01:23:45;;;;;;;16.23;12.18;;;;;;;7.33;77.68;98518.13;5039071;28;20029;-74
2024/03/20 01:26:10;;;;;;;15.55;11.05;;;;;;;7.40;77.17;98524.25;5012672;28;20412;-73
2024/03/20 01:28:36;;;;;;;13.32;10.85;;;;;;;7.44;76.87;98530.84;5040053;28;20041;-73
2024/03/20 01:31:01;;;;;;;14.48;12.18;;;;;;;7.30;77.72;98507.88;5019978;28;20025;-73
2024/03/20 01:33:26;;;;;;;13.07;10.98;;;;;;;7.34;77.61;98509.06;5000822;28;20125;-74
2024/03/20 01:35:52;;;;;;;12.77;11.48;;;;;;;7.40;76.78;98518.91;5041295;28;20066;-74
2024/03/20 01:38:17;;;;;;;12.52;10.85;;;;;;;7.35;76.73;98516.88;4992686;28;20543;-73
2024/03/20 01:40:43;;;;;;;16.17;11.25;;;;;;;7.34;77.04;98511.75;5021361;28;20036;-73
2024/03/20 01:43:19;;;;;;;15.85;11.88;;;;;;;7.14;76.56;98511.06;5017162;28;20034;-74
2024/03/20 01:45:46;;;;;;;16.52;12.48;;;;;;;7.20;75.30;98518.22;5016660;28;20042;-73
2024/03/20 01:48:12;;;;;;;15.15;11.68;;;;;;;7.01;76.45;98495.03;5009201;28;20030;-73
2024/03/20 01:50:38;;;;;;;12.50;10.98;;;;;;;6.94;76.04;98493.22;5020215;28;20037;-73
2024/03/20 01:53:03;;;;;;;14.50;11.13;;;;;;;6.97;75.85;98498.16;4985084;28;20021;-73
2024/03/20 01:55:28;;;;;;;13.27;10.80;;;;;;;6.92;76.60;98500.66;5020867;28;20538;-74
2024/03/20 01:57:54;;;;;;;14.57;11.02;;;;;;;7.00;76.50;98506.81;5017446;28;20025;-71
2024/03/20 02:00:27;;;;;;;16.13;11.90;;;;;;;6.90;75.67;98500.06;5016275;28;20120;-73
2024/03/20 02:02:58;;;;;;;14.30;11.63;;;;;;;6.90;76.20;98507.25;5017752;28;20038;-73
2024/03/20 02:05:24;;;;;;;15.65;12.45;;;;;;;6.83;76.38;98507.28;4998932;28;20496;-71
2024/03/20 02:07:51;;;;;;;13.75;11.95;;;;;;;6.85;76.07;98499.03;5017575;28;20022;-73
2024/03/20 02:10:17;;;;;;;13.40;11.40;;;;;;;6.78;77.02;98492.91;5017139;28;20045;-74
2024/03/20 02:12:42;;;;;;;14.68;12.48;;;;;;;6.72;76.15;98491.88;4996133;28;20028;-75
2024/03/20 02:15:09;;;;;;;14.27;11.20;;;;;;;6.81;75.98;98503.19;5032852;28;20041;-74
2024/03/20 02:17:38;;;;;;;12.38;10.90;;;;;;;6.77;76.04;98502.78;5023745;28;20397;-74
2024/03/20 02:20:06;;;;;;;14.13;11.90;;;;;;;6.67;76.61;98480.19;5017674;28;20116;-74
2024/03/20 02:22:49;;;;;;;13.15;11.70;;;;;;;6.65;75.18;98499.13;5011714;28;20066;-73
2024/03/20 02:25:15;;;;;;;17.85;11.98;;;;;;;6.59;76.54;98494.63;4999517;28;20400;-73
2024/03/20 02:27:40;;;;;;;14.00;12.02;;;;;;;6.57;76.17;98502.03;5018007;28;20026;-73
2024/03/20 02:30:07;;;;;;;14.70;12.43;;;;;;;6.47;76.68;98498.97;4999978;28;20472;-72
2024/03/20 02:32:33;;;;;;;14.27;11.43;;;;;;;6.47;76.10;98512.34;5016143;28;20088;-75
2024/03/20 02:34:58;;;;;;;16.40;12.27;;;;;;;6.48;76.53;98519.38;4999812;28;20033;-74
2024/03/20 02:37:23;;;;;;;14.00;12.50;;;;;;;6.40;76.31;98516.91;5015809;28;20120;-73
2024/03/20 02:39:49;;;;;;;16.80;13.10;;;;;;;6.40;77.20;98524.94;5015901;28;20037;-73
2024/03/20 02:42:14;;;;;;;14.63;12.60;;;;;;;6.32;76.48;98509.13;4999451;28;20029;-71
2024/03/20 02:44:40;;;;;;;15.65;12.60;;;;;;;6.30;76.14;98513.88;5015622;28;20045;-73
2024/03/20 02:47:05;;;;;;;12.75;11.32;;;;;;;6.37;76.35;98530.69;5015737;28;20048;-73
2024/03/20 02:49:30;;;;;;;15.77;11.73;;;;;;;6.20;76.95;98511.63;4999516;28;20484;-74
2024/03/20 02:51:56;;;;;;;16.77;12.80;;;;;;;6.24;76.14;98523.53;5018321;28;20026;-74
2024/03/20 02:54:21;;;;;;;18.30;13.65;;;;;;;6.20;76.22;98521.47;5018988;28;20033;-73
2024/03/20 02:56:47;;;;;;;16.40;12.50;;;;;;;6.16;76.61;98525.63;5010941;28;20021;-72
2024/03/20 02:59:12;;;;;;;17.02;13.88;;;;;;;6.10;76.55;98527.25;4983369;28;20129;-72
2024/03/20 03:01:37;;;;;;;16.45;13.88;;;;;;;6.22;77.29;98546.16;4999635;28;20025;-73
2024/03/20 03:04:03;;;;;;;16.40;13.60;;;;;;;6.19;77.29;98546.56;4999765;28;20030;-73
2024/03/20 03:06:29;;;;;;;14.55;13.05;;;;;;;6.16;76.78;98541.66;5005467;28;20021;-71
2024/03/20 03:08:54;;;;;;;16.83;13.98;;;;;;;6.14;77.50;98535.66;5023757;28;20041;-71
2024/03/20 03:11:20;;;;;;;17.42;13.52;;;;;;;6.21;77.93;98544.50;5014953;28;20079;-70
2024/03/20 03:13:45;;;;;;;19.45;13.75;;;;;;;6.18;77.62;98547.63;5033116;28;20037;-72
2024/03/20 03:16:13;;;;;;;18.73;14.98;;;;;;;6.19;78.44;98551.91;4998816;28;20029;-73
2024/03/20 03:18:39;;;;;;;18.02;14.35;;;;;;;6.07;77.73;98534.84;5020194;28;20041;-72
2024/03/20 03:21:09;;;;;;;15.30;13.65;;;;;;;5.99;77.82;98527.06;4999025;28;20078;-71
2024/03/20 03:23:34;;;;;;;18.50;14.80;;;;;;;6.06;77.90;98541.25;5006839;28;20404;-72
2024/03/20 03:26:00;;;;;;;15.35;13.30;;;;;;;6.11;78.29;98544.13;4998751;28;20025;-71
2024/03/20 03:28:25;;;;;;;15.27;12.80;;;;;;;6.05;78.61;98544.94;4994572;28;20048;-70
2024/03/20 03:30:50;;;;;;;17.75;13.85;;;;;;;5.99;77.46;98535.09;5032657;28;20473;-73
2024/03/20 03:33:16;;;;;;;18.45;13.60;;;;;;;6.05;78.13;98547.59;5040016;28;20037;-73
2024/03/20 03:35:41;;;;;;;16.45;14.32;;;;;;;6.01;77.49;98544.53;5032387;28;20473;-73
2024/03/20 03:38:06;;;;;;;16.45;14.18;;;;;;;6.04;78.42;98545.97;5033139;28;20038;-74
2024/03/20 03:40:32;;;;;;;15.13;12.93;;;;;;;6.07;77.62;98550.91;5014871;28;20075;-74
2024/03/20 03:42:57;;;;;;;18.70;14.80;;;;;;;5.95;77.76;98534.66;5017337;28;20034;-75
2024/03/20 03:45:22;;;;;;;16.38;13.00;;;;;;;5.99;77.81;98551.94;5006707;28;20116;-75
2024/03/20 03:47:48;;;;;;;17.63;14.48;;;;;;;5.94;78.10;98542.91;4978887;28;20037;-75
2024/03/20 03:50:13;;;;;;;19.05;15.52;;;;;;;5.89;78.05;98534.66;4982201;28;20113;-74
2024/03/20 03:52:39;;;;;;;18.45;13.95;;;;;;;5.97;78.05;98558.53;5018280;28;20353;-75
2024/03/20 03:55:05;;;;;;;15.43;13.48;;;;;;;5.97;77.24;98554.00;5022332;28;20103;-74
2024/03/20 03:57:30;;;;;;;15.90;14.23;;;;;;;5.78;77.45;98533.41;4982078;28;20037;-74
2024/03/20 03:59:55;;;;;;;17.48;14.25;;;;;;;5.86;77.10;98553.81;4998253;28;20030;-73
2024/03/20 04:02:21;;;;;;;17.63;14.50;;;;;;;5.74;78.36;98544.72;5014791;28;20045;-73
2024/03/20 04:04:48;;;;;;;18.42;14.38;;;;;;;5.75;78.04;98551.69;5014352;28;20025;-72
2024/03/20 04:07:13;;;;;;;18.13;13.40;;;;;;;5.73;77.56;98540.41;4982059;28;20033;-72
2024/03/20 04:09:39;;;;;;;17.35;14.05;;;;;;;5.72;77.58;98549.44;5032108;28;20090;-71
2024/03/20 04:12:04;;;;;;;14.60;13.02;;;;;;;5.79;77.90;98560.97;5022975;28;20046;-71
2024/03/20 04:14:29;;;;;;;17.85;14.50;;;;;;;5.72;77.68;98539.56;5016712;28;20101;-71
2024/03/20 04:16:55;;;;;;;16.45;13.77;;;;;;;5.73;78.25;98545.75;5031926;28;20033;-71
2024/03/20 04:19:20;;;;;;;17.20;15.10;;;;;;;5.69;77.54;98539.16;4998078;28;20037;-71
2024/03/20 04:21:46;;;;;;;15.18;13.27;;;;;;;5.74;77.53;98542.06;5040909;28;20128;-71
2024/03/20 04:24:11;;;;;;;16.20;14.18;;;;;;;5.80;78.46;98551.91;4997157;28;20029;-71
2024/03/20 04:26:36;;;;;;;16.65;13.82;;;;;;;5.62;78.68;98527.66;4998227;28;20469;-71
2024/03/20 04:29:02;;;;;;;16.73;14.88;;;;;;;5.72;78.57;98544.13;5014634;28;20492;-72
2024/03/20 04:31:27;;;;;;;18.63;16.27;;;;;;;5.70;78.29;98546.13;5033426;28;20041;-72
2024/03/20 04:33:52;;;;;;;17.50;15.55;;;;;;;5.71;77.62;98542.44;5013926;28;20025;-72
2024/03/20 04:36:19;;;;;;;19.85;16.13;;;;;;;5.68;78.02;98541.00;5029227;28;20029;-74
2024/03/20 04:38:44;;;;;;;17.25;15.05;;;;;;;5.70;77.83;98538.13;5023364;28;20036;-73
2024/03/20 04:41:09;;;;;;;17.17;15.38;;;;;;;5.73;78.35;98551.91;5047851;28;20041;-74
2024/03/20 04:43:35;;;;;;;20.00;17.92;;;;;;;5.73;78.34;98559.94;5037952;28;20051;-73
2024/03/20 04:46:00;;;;;;;22.05;16.20;;;;;;;5.69;78.20;98555.19;5034264;28;20045;-74
2024/03/20 04:48:26;;;;;;;20.23;15.52;;;;;;;5.62;78.39;98543.69;5046888;28;20036;-76
2024/03/20 04:50:52;;;;;;;21.58;15.48;;;;;;;5.64;78.23;98563.00;5029687;28;20041;-76
2024/03/20 04:53:19;;;;;;;18.60;16.10;;;;;;;5.58;77.77;98552.09;5036431;28;20029;-76
2024/03/20 04:55:44;;;;;;;20.58;17.17;;;;;;;5.52;77.74;98544.91;5037381;28;20037;-75
2024/03/20 04:58:09;;;;;;;22.25;17.52;;;;;;;5.63;78.40;98566.69;4984014;28;20099;-72
2024/03/20 05:00:35;;;;;;;17.55;15.75;;;;;;;5.49;77.51;98550.66;5034723;28;20072;-72
2024/03/20 05:03:00;;;;;;;19.08;15.25;;;;;;;5.42;77.99;98555.16;5016539;28;20439;-73
2024/03/20 05:05:25;;;;;;;18.02;15.88;;;;;;;5.45;77.95;98562.78;5031245;28;20124;-72
2024/03/20 05:07:51;;;;;;;18.85;15.20;;;;;;;5.33;78.62;98545.69;4982012;28;20029;-73
2024/03/20 05:10:16;;;;;;;22.90;18.05;;;;;;;5.38;78.54;98553.94;5032735;28;20133;-74
2024/03/20 05:12:42;;;;;;;22.33;16.50;;;;;;;5.42;78.38;98565.84;4998300;28;20031;-75
2024/03/20 05:15:08;;;;;;;25.13;18.25;;;;;;;5.34;78.01;98547.34;4998402;28;20040;-72
2024/03/20 05:17:33;;;;;;;21.42;16.90;;;;;;;5.28;77.94;98552.66;5007938;28;20077;-72
2024/03/20 05:19:59;;;;;;;18.95;15.27;;;;;;;5.34;78.03;98558.03;4997867;28;20037;-73
2024/03/20 05:22:24;;;;;;;19.55;16.42;;;;;;;5.30;78.49;98562.09;4997787;28;20117;-75
2024/03/20 05:24:50;;;;;;;18.55;14.48;;;;;;;5.27;77.92;98559.03;4997183;28;20087;-73
2024/03/20 05:27:16;;;;;;;30.67;17.85;;;;;;;5.31;78.19;98566.44;5013402;28;20029;-72
2024/03/20 05:29:41;;;;;;;19.45;15.80;;;;;;;5.40;78.31;98583.09;4996991;28;20428;-72
2024/03/20 05:32:07;;;;;;;19.95;15.90;;;;;;;5.33;78.17;98574.25;4976909;28;20064;-73
2024/03/20 05:34:33;;;;;;;19.80;16.88;;;;;;;5.30;78.09;98570.13;5015149;28;20125;-73
2024/03/20 05:36:58;;;;;;;20.80;16.67;;;;;;;5.33;78.17;98583.06;5004208;28;20025;-73
2024/03/20 05:39:23;;;;;;;18.30;15.27;;;;;;;5.29;78.26;98573.00;5002796;28;20041;-72
2024/03/20 05:41:49;;;;;;;22.13;16.65;;;;;;;5.34;78.19;98582.06;5000955;28;20079;-73
2024/03/20 05:44:16;;;;;;;18.98;16.10;;;;;;;5.35;78.70;98585.53;5000451;28;20045;-73
2024/03/20 05:46:43;;;;;;;19.85;16.85;;;;;;;5.35;78.14;98585.53;5017143;28;20539;-72
2024/03/20 05:49:09;;;;;;;20.25;18.02;;;;;;;5.37;79.15;98595.00;5017543;28;20509;-73
2024/03/20 05:51:35;;;;;;;19.33;16.20;;;;;;;5.35;79.19;98591.72;5001390;28;20035;-72
2024/03/20 05:54:01;;;;;;;22.42;18.35;;;;;;;5.32;78.39;98586.75;5034407;28;20037;-72
2024/03/20 05:56:26;;;;;;;18.88;16.75;;;;;;;5.47;78.99;98606.13;5020077;28;20021;-72
2024/03/20 05:58:52;;;;;;;18.90;16.80;;;;;;;5.51;78.60;98607.34;5016480;28;20033;-72
2024/03/20 06:01:17;;;;;;;19.92;17.27;;;;;;;5.47;79.32;98592.78;5016653;28;20025;-72
2024/03/20 06:03:42;;;;;;;18.45;16.23;;;;;;;5.62;78.94;98610.47;5034388;28;20042;-72
2024/03/20 06:06:08;;;;;;;20.20;17.35;;;;;;;5.56;79.77;98585.38;5016193;28;20104;-73
2024/03/20 06:08:33;;;;;;;21.58;17.75;;;;;;;5.67;80.15;98592.00;4999952;28;20041;-73
2024/03/20 06:11:01;;;;;;;21.58;16.70;;;;;;;5.78;79.53;98608.25;5016979;28;20036;-73
2024/03/20 06:13:27;;;;;;;20.20;18.00;;;;;;;5.88;79.90;98607.88;5034037;28;20033;-72
2024/03/20 06:15:52;;;;;;;22.40;16.88;;;;;;;5.94;80.45;98613.22;5015899;28;20074;-73
2024/03/20 06:18:18;;;;;;;24.13;18.83;;;;;;;5.90;79.64;98600.47;4999837;28;20041;-72
2024/03/20 06:20:43;;;;;;;22.55;19.30;;;;;;;5.97;80.57;98599.44;5016293;28;20033;-72
2024/03/20 06:23:09;;;;;;;28.83;22.90;;;;;;;6.07;79.86;98615.88;5020598;28;20120;-72
2024/03/20 06:25:35;;;;;;;34.65;27.38;;;;;;;6.17;80.59;98610.13;5033570;28;20498;-73
2024/03/20 06:28:00;;;;;;;75.53;49.65;;;;;;;6.15;80.20;98601.50;4999663;28;20060;-72
2024/03/20 06:30:26;;;;;;;73.18;49.70;;;;;;;6.17;80.41;98599.44;5016021;28;20499;-73
2024/03/20 06:32:51;;;;;;;56.67;42.05;;;;;;;6.20;80.30;98607.06;5022743;28;20033;-72
2024/03/20 06:35:17;;;;;;;50.58;37.83;;;;;;;6.22;80.02;98594.28;5004013;28;20460;-72
2024/03/20 06:37:42;;;;;;;67.25;49.25;;;;;;;6.37;80.39;98616.28;5016386;22;20022;-76
2024/03/20 06:40:10;;;;;;;57.42;44.25;;;;;;;6.34;80.96;98607.88;5017964;28;20041;-76
2024/03/20 06:42:39;;;;;;;50.08;40.40;;;;;;;6.42;80.69;98616.47;5021712;28;20029;-76
2024/03/20 06:45:05;;;;;;;55.17;42.22;;;;;;;6.44;81.30;98614.41;5051909;28;20116;-76
2024/03/20 06:47:31;;;;;;;56.05;45.15;;;;;;;6.56;81.75;98618.13;5053476;28;20116;-76
2024/03/20 06:49:56;;;;;;;47.25;38.42;;;;;;;6.20;81.23;98548.22;5027596;28;20029;-75
2024/03/20 06:52:22;;;;;;;42.85;35.20;;;;;;;6.64;80.68;98599.19;5021052;28;20034;-76
2024/03/20 06:54:50;;;;;;;31.40;27.98;;;;;;;6.88;81.36;98619.88;5017812;28;20172;-76
2024/03/20 06:57:17;;;;;;;31.08;27.67;;;;;;;6.97;81.44;98609.78;5025915;28;20041;-76
2024/03/20 06:59:46;;;;;;;28.05;22.90;;;;;;;7.10;80.22;98611.59;5007567;28;20025;-76
2024/03/20 07:02:13;;;;;;;27.92;22.00;;;;;;;7.24;81.15;98622.03;5015549;28;20224;-76
2024/03/20 07:04:38;;;;;;;21.17;18.92;;;;;;;7.28;80.98;98633.16;5015608;28;20025;-76
2024/03/20 07:07:04;;;;;;;21.90;18.75;;;;;;;7.26;81.04;98611.13;5025173;28;20029;-76
2024/03/20 07:09:33;;;;;;;21.98;19.17;;;;;;;7.37;81.03;98615.81;4994489;28;20119;-74
2024/03/20 07:11:59;;;;;;;20.13;17.40;;;;;;;7.33;81.33;98593.13;5041731;28;20041;-75
2024/03/20 07:14:27;;;;;;;23.15;19.30;;;;;;;7.56;81.29;98623.72;5006606;28;20160;-76
2024/03/20 07:16:52;;;;;;;21.50;18.88;;;;;;;7.66;81.07;98620.59;5036929;28;20090;-76
2024/03/20 07:19:18;;;;;;;22.25;18.90;;;;;;;7.73;80.77;98621.38;5018580;28;20469;-78
2024/03/20 07:21:44;;;;;;;20.80;18.70;;;;;;;7.78;81.01;98621.53;5043981;28;20075;-76
2024/03/20 07:24:10;;;;;;;22.52;19.70;;;;;;;7.75;81.41;98605.88;5003680;28;20029;-76
2024/03/20 07:26:37;;;;;;;21.23;18.92;;;;;;;7.85;81.85;98622.31;5025903;28;20848;-76
2024/03/20 07:29:06;;;;;;;21.80;19.38;;;;;;;7.82;80.80;98601.28;5015353;28;20468;-76
2024/03/20 07:31:33;;;;;;;24.10;18.98;;;;;;;7.95;80.33;98620.00;5030186;28;20034;-76
2024/03/20 07:33:58;;;;;;;20.08;17.52;;;;;;;7.90;80.51;98598.38;5014793;28;20392;-77
2024/03/20 07:36:24;;;;;;;19.35;17.23;;;;;;;8.04;80.44;98601.78;5023028;28;20045;-77
2024/03/20 07:38:49;;;;;;;20.67;17.30;;;;;;;8.31;80.20;98633.56;5014593;28;20108;-76
2024/03/20 07:41:15;;;;;;;22.15;18.13;;;;;;;8.27;79.93;98621.63;5044656;28;20142;-76
2024/03/20 07:43:40;;;;;;;20.90;18.52;;;;;;;8.41;79.59;98632.25;5020662;28;20033;-76
2024/03/20 07:46:05;;;;;;;20.30;18.15;;;;;;;8.40;80.15;98633.28;5014596;28;20500;-76
2024/03/20 07:48:32;;;;;;;19.90;17.70;;;;;;;8.47;79.95;98631.38;5022673;28;20042;-76
2024/03/20 07:50:58;;;;;;;18.52;16.42;;;;;;;8.48;80.26;98624.94;5007599;28;20037;-76
2024/03/20 07:53:24;;;;;;;20.70;17.23;;;;;;;8.62;79.56;98626.47;5028791;28;20123;-76
2024/03/20 07:55:50;;;;;;;19.95;17.70;;;;;;;8.81;79.69;98649.63;5010108;28;20128;-77
2024/03/20 07:58:17;;;;;;;18.35;15.52;;;;;;;8.78;79.25;98633.94;5018481;28;20049;-77
2024/03/20 08:00:43;;;;;;;18.52;16.17;;;;;;;9.00;78.71;98645.91;5028252;28;20033;-76
2024/03/20 08:03:08;;;;;;;20.95;16.63;;;;;;;8.57;78.62;98567.25;5030857;28;20029;-76
2024/03/20 08:05:34;;;;;;;19.23;16.55;;;;;;;9.04;77.88;98622.94;5016587;28;20029;-75
2024/03/20 08:07:59;;;;;;;19.55;17.38;;;;;;;9.18;77.89;98632.47;5046368;28;20036;-74
2024/03/20 08:10:25;;;;;;;18.92;16.25;;;;;;;9.08;77.92;98613.38;5013493;28;20054;-76
2024/03/20 08:12:50;;;;;;;17.23;15.30;;;;;;;9.36;77.30;98635.16;5015423;28;20029;-77
2024/03/20 08:15:17;;;;;;;17.25;15.43;;;;;;;9.42;77.29;98633.44;5000047;28;20459;-75
2024/03/20 08:17:46;;;;;;;17.02;15.23;;;;;;;9.46;76.89;98627.38;4990941;28;20384;-76
2024/03/20 08:20:12;;;;;;;17.60;14.73;;;;;;;9.66;77.10;98646.75;5016635;28;20037;-78
2024/03/20 08:22:41;;;;;;;15.48;13.60;;;;;;;9.74;76.98;98643.75;5019213;28;20032;-76
2024/03/20 08:25:08;;;;;;;16.08;14.05;;;;;;;9.56;75.87;98600.78;4987693;28;20401;-77
2024/03/20 08:27:36;;;;;;;16.50;13.38;;;;;;;9.89;76.19;98647.91;4986819;28;20092;-76
2024/03/20 08:30:05;;;;;;;17.15;14.43;;;;;;;10.06;75.89;98648.91;5023465;28;20033;-76
2024/03/20 08:32:30;;;;;;;17.23;14.82;;;;;;;10.12;75.89;98642.63;5036401;28;20032;-76
2024/03/20 08:34:57;;;;;;;16.85;13.73;;;;;;;10.13;76.02;98633.47;5023760;28;20045;-76
2024/03/20 08:37:22;;;;;;;16.00;14.32;;;;;;;10.33;75.69;98642.09;5029088;28;20100;-76
2024/03/20 08:39:47;;;;;;;16.67;13.88;;;;;;;10.32;76.13;98621.59;4986017;28;20157;-76
2024/03/20 08:42:13;;;;;;;15.75;14.05;;;;;;;10.43;75.61;98615.41;5044090;28;20025;-76
2024/03/20 08:44:39;;;;;;;14.38;12.90;;;;;;;10.70;76.05;98627.34;5002818;28;20036;-76
2024/03/20 08:47:04;;;;;;;16.23;13.93;;;;;;;10.71;75.72;98596.66;5001037;28;20025;-76
2024/03/20 08:49:37;;;;;;;15.23;13.63;;;;;;;10.96;75.49;98616.09;5021152;28;20516;-77
2024/03/20 08:52:03;;;;;;;16.38;14.40;;;;;;;11.11;74.50;98602.94;5023539;28;20069;-76
2024/03/20 08:54:28;;;;;;;18.77;14.52;;;;;;;11.21;73.71;98601.50;5008692;28;20036;-77
2024/03/20 08:56:54;;;;;;;17.83;14.70;;;;;;;11.34;72.91;98617.44;5017851;28;20045;-77
2024/03/20 08:59:19;;;;;;;20.60;15.27;;;;;;;11.46;72.08;98610.94;5038884;28;20086;-77
2024/03/20 09:01:44;;;;;;;17.92;15.18;;;;;;;11.64;71.00;98618.03;5015941;28;20034;-77
2024/03/20 09:04:10;;;;;;;16.95;15.15;;;;;;;11.73;70.60;98617.44;5001976;28;20060;-76
2024/03/20 09:06:35;;;;;;;16.52;14.52;;;;;;;11.70;70.71;98590.09;5000090;28;20033;-76
2024/03/20 09:09:01;;;;;;;20.80;14.98;;;;;;;11.98;70.26;98619.78;5015710;28;20076;-76
2024/03/20 09:11:28;;;;;;;19.80;15.35;;;;;;;12.05;69.48;98609.63;5008668;28;20042;-76
2024/03/20 09:13:53;;;;;;;16.25;14.38;;;;;;;12.36;68.35;98638.81;5020015;28;20025;-77
2024/03/20 09:16:19;;;;;;;16.52;13.95;;;;;;;12.10;68.04;98566.53;5032857;28;20094;-77
2024/03/20 09:18:45;;;;;;;16.13;14.35;;;;;;;12.63;66.90;98628.16;5017277;28;20021;-76
2024/03/20 09:21:10;;;;;;;18.70;15.07;;;;;;;12.62;66.53;98626.53;5016970;28;20040;-76
2024/03/20 09:23:37;;;;;;;17.30;13.63;;;;;;;12.59;66.33;98616.19;5014059;28;20034;-76
2024/03/20 09:26:03;;;;;;;16.63;13.75;;;;;;;12.68;66.72;98622.00;5017569;28;20555;-77
2024/03/20 09:28:28;;;;;;;17.13;14.00;;;;;;;12.72;65.20;98598.84;5030465;28;20158;-77
2024/03/20 09:30:54;;;;;;;16.05;13.73;;;;;;;12.97;65.46;98626.22;5022017;28;20088;-77
2024/03/20 09:33:20;;;;;;;15.40;13.60;;;;;;;13.02;64.65;98607.38;5025423;28;20405;-77
2024/03/20 09:35:45;;;;;;;15.70;13.90;;;;;;;13.14;64.37;98608.91;5010125;28;20067;-76
2024/03/20 09:38:11;;;;;;;16.50;13.25;;;;;;;13.12;64.41;98575.06;5018584;28;20630;-76
2024/03/20 09:40:36;;;;;;;17.00;13.95;;;;;;;13.33;65.03;98600.47;5021385;28;20040;-77
2024/03/20 09:43:03;;;;;;;17.65;13.80;;;;;;;13.37;65.35;98601.63;5018070;28;20033;-77
2024/03/20 09:45:28;;;;;;;16.73;13.80;;;;;;;13.48;65.63;98612.31;5024342;28;20041;-76
2024/03/20 09:47:55;;;;;;;19.10;14.55;;;;;;;13.18;66.11;98575.97;5011726;28;20031;-76
2024/03/20 09:50:22;;;;;;;15.23;12.88;;;;;;;13.54;63.52;98611.31;5020141;28;20079;-75
2024/03/20 09:52:51;;;;;;;19.38;13.25;;;;;;;13.59;64.56;98594.31;5027521;28;20096;-76
2024/03/20 09:55:17;;;;;;;16.50;13.25;;;;;;;13.78;63.42;98615.38;5016994;28;20512;-77
2024/03/20 09:57:44;;;;;;;15.93;12.48;;;;;;;13.88;62.90;98604.63;5005221;28;20052;-76
2024/03/20 10:00:16;;;;;;;19.00;12.65;;;;;;;14.12;62.87;98620.59;5028914;28;20425;-76
2024/03/20 10:02:43;;;;;;;24.88;16.30;;;;;;;14.17;62.96;98604.34;5033502;28;20037;-77
2024/03/20 10:05:12;;;;;;;14.32;12.82;;;;;;;14.10;62.75;98582.09;5029614;28;20033;-76
2024/03/20 10:07:39;;;;;;;19.90;15.38;;;;;;;14.31;62.91;98597.47;5000550;28;20485;-77
2024/03/20 10:10:05;;;;;;;15.75;12.50;;;;;;;14.30;61.84;98579.59;5045462;28;20526;-76
2024/03/20 10:12:30;;;;;;;16.17;12.40;;;;;;;14.53;60.70;98607.16;5000154;28;20547;-77
2024/03/20 10:14:55;;;;;;;16.88;13.43;;;;;;;14.56;61.02;98611.25;5034139;28;20037;-77
2024/03/20 10:17:22;;;;;;;19.23;12.85;;;;;;;14.63;60.46;98598.28;5023253;28;20054;-75
2024/03/20 10:19:47;;;;;;;15.73;12.50;;;;;;;14.78;60.72;98609.22;4996715;28;20030;-75
2024/03/20 10:22:13;;;;;;;16.73;11.93;;;;;;;14.73;59.52;98595.63;5008995;28;20037;-76
2024/03/20 10:24:39;;;;;;;14.20;11.93;;;;;;;14.71;60.93;98586.13;5029667;28;20491;-76
2024/03/20 10:27:05;;;;;;;15.38;11.52;;;;;;;14.78;60.77;98587.53;5002764;28;20034;-76
2024/03/20 10:29:32;;;;;;;14.57;12.32;;;;;;;14.96;60.74;98589.81;5027887;28;20068;-76
2024/03/20 10:31:58;;;;;;;15.88;11.13;;;;;;;15.05;60.31;98592.84;5036408;28;20056;-76
2024/03/20 10:34:26;;;;;;;16.73;11.98;;;;;;;15.19;59.29;98581.22;5001740;28;20468;-76
2024/03/20 10:36:53;;;;;;;13.52;11.23;;;;;;;15.18;58.45;98571.47;5027968;28;20123;-76
2024/03/20 10:39:19;;;;;;;12.63;10.98;;;;;;;15.24;58.54;98570.41;5018375;28;20481;-75
2024/03/20 10:41:46;;;;;;;14.10;9.40;;;;;;;15.37;58.96;98581.88;4997569;28;20064;-76
2024/03/20 10:44:16;;;;;;;10.73;8.93;;;;;;;15.47;56.38;98574.63;5035592;28;20025;-76
2024/03/20 10:46:44;;;;;;;9.93;8.30;;;;;;;15.55;55.80;98565.13;5009637;28;20041;-76
2024/03/20 10:49:16;;;;;;;8.02;6.70;;;;;;;15.73;55.07;98562.72;5009515;28;20029;-76
2024/03/20 10:51:42;;;;;;;9.02;6.60;;;;;;;15.79;54.12;98561.66;5027149;28;20072;-76
2024/03/20 10:54:10;;;;;;;9.32;6.75;;;;;;;15.88;54.78;98570.09;4978248;28;20064;-76
2024/03/20 10:56:46;;;;;;;8.63;7.10;;;;;;;15.85;53.36;98554.31;5031979;28;20029;-76
2024/03/20 10:59:16;;;;;;;8.00;6.57;;;;;;;16.02;52.84;98573.91;5000942;28;20095;-77
2024/03/20 11:02:08;;;;;;;10.95;7.63;;;;;;;16.15;52.85;98569.88;5037946;28;20042;-77
2024/03/20 11:04:39;;;;;;;10.60;7.72;;;;;;;16.25;52.85;98567.13;5018011;28;20033;-76
2024/03/20 11:07:29;;;;;;;8.63;7.63;;;;;;;16.26;52.15;98561.44;5002441;28;20055;-76
2024/03/20 11:09:58;;;;;;;10.27;7.47;;;;;;;16.17;51.56;98541.34;5022873;28;20068;-76
2024/03/20 11:12:27;;;;;;;8.25;6.75;;;;;;;16.22;52.35;98527.72;5015350;28;20404;-77
2024/03/20 11:14:52;;;;;;;11.40;7.65;;;;;;;16.42;52.23;98543.22;5012782;28;20118;-77
2024/03/20 11:17:20;;;;;;;10.60;8.35;;;;;;;16.53;51.88;98553.00;5021421;28;20049;-76
2024/03/20 11:19:46;;;;;;;10.75;7.80;;;;;;;16.62;51.46;98564.16;5037463;28;20049;-76
2024/03/20 11:22:22;;;;;;;10.50;7.70;;;;;;;16.77;51.71;98559.50;5005322;28;20037;-77